Time;durP1;ratioP1;P1;durP2;ratioP2;P2;SDS_P1;SDS_P2;PMS_P1;PMS_P2;Temp;Humidity;BMP_temperature;BMP_pressure;BME280_temperature;BME280_humidity;BME280_pressure;Samples;Min_cycle;Max_cycle;Signal;HPM_P1;HPM_P2
2022/04/08 00:01:30;;;;;;;9.33;9.03;;;8.80;99.90;;;;;;5022555;28;20224;-81
2022/04/08 00:03:59;;;;;;;9.40;9.10;;;8.70;99.90;;;;;;5024716;28;20228;-81
2022/04/08 00:06:26;;;;;;;9.50;9.20;;;8.70;99.90;;;;;;5024210;28;20257;-81
2022/04/08 00:08:54;;;;;;;9.50;9.20;;;8.70;99.90;;;;;;5022963;28;20267;-81
2022/04/08 00:11:24;;;;;;;9.60;9.30;;;8.70;99.90;;;;;;5023205;28;20228;-81
2022/04/08 00:13:53;;;;;;;9.63;9.33;;;8.70;99.90;;;;;;5015584;28;20684;-81
2022/04/08 00:16:21;;;;;;;9.57;9.27;;;8.70;99.90;;;;;;5023547;28;20314;-81
2022/04/08 00:18:50;;;;;;;9.37;9.07;;;8.70;99.90;;;;;;5023123;28;20275;-80
2022/04/08 00:21:17;;;;;;;9.27;8.97;;;8.60;99.90;;;;;;5023205;28;20279;-81
2022/04/08 00:23:46;;;;;;;9.50;9.20;;;8.60;99.90;;;;;;5023599;28;20232;-81
2022/04/08 00:26:13;;;;;;;9.77;9.47;;;8.60;99.90;;;;;;5023040;28;20230;-81
2022/04/08 00:28:43;;;;;;;9.60;9.30;;;8.60;99.90;;;;;;5023337;28;20294;-82
2022/04/08 00:31:10;;;;;;;9.60;9.30;;;8.60;99.90;;;;;;5023276;28;20228;-82
2022/04/08 00:33:38;;;;;;;9.47;9.17;;;8.60;99.90;;;;;;5023846;28;20236;-82
2022/04/08 00:36:07;;;;;;;9.67;9.37;;;8.60;99.90;;;;;;5023631;28;20276;-82
2022/04/08 00:38:34;;;;;;;9.70;9.40;;;8.50;99.90;;;;;;5022176;28;20247;-82
2022/04/08 00:41:03;;;;;;;9.80;9.50;;;8.50;99.90;;;;;;5022744;28;20251;-82
2022/04/08 00:43:36;;;;;;;9.80;9.50;;;8.50;99.90;;;;;;5022550;28;20232;-82
2022/04/08 00:46:08;;;;;;;9.60;9.30;;;8.40;99.90;;;;;;5022466;28;20315;-82
2022/04/08 00:48:36;;;;;;;9.60;9.30;;;8.40;99.90;;;;;;5022047;28;20248;-82
2022/04/08 00:51:07;;;;;;;9.40;9.10;;;8.40;99.90;;;;;;5027032;28;20216;-82
2022/04/08 00:53:37;;;;;;;9.70;9.40;;;8.40;99.90;;;;;;5036791;28;20232;-82
2022/04/08 00:56:06;;;;;;;9.20;8.90;;;8.40;99.90;;;;;;5029093;28;20236;-81
2022/04/08 00:58:38;;;;;;;9.50;9.20;;;8.40;99.90;;;;;;5025457;28;20224;-82
2022/04/08 01:01:08;;;;;;;9.30;9.00;;;8.40;99.90;;;;;;5025734;28;20243;-82
2022/04/08 01:03:35;;;;;;;9.50;9.20;;;8.40;99.90;;;;;;5024139;28;20229;-82
2022/04/08 01:06:04;;;;;;;9.53;9.23;;;8.40;99.90;;;;;;5022967;28;20256;-82
2022/04/08 01:08:35;;;;;;;9.50;9.20;;;8.30;99.90;;;;;;5023471;28;20239;-82
2022/04/08 01:11:04;;;;;;;9.50;9.20;;;8.30;99.90;;;;;;5025466;28;20248;-82
2022/04/08 01:13:33;;;;;;;9.43;9.13;;;8.30;99.90;;;;;;5024778;28;20303;-82
2022/04/08 01:16:00;;;;;;;9.57;9.27;;;8.30;99.90;;;;;;5024241;28;20271;-82
2022/04/08 01:18:30;;;;;;;9.30;9.00;;;8.30;99.90;;;;;;5022982;28;20263;-81
2022/04/08 01:20:58;;;;;;;9.40;9.10;;;8.30;99.90;;;;;;5021493;28;20243;-82
2022/04/08 01:23:26;;;;;;;9.60;9.30;;;8.30;99.90;;;;;;5021791;28;20286;-81
2022/04/08 01:25:56;;;;;;;9.60;9.30;;;8.30;99.90;;;;;;5021549;28;20235;-82
2022/04/08 01:28:25;;;;;;;9.60;9.30;;;8.30;99.90;;;;;;5021907;28;20236;-82
2022/04/08 01:30:53;;;;;;;9.40;9.10;;;8.30;99.90;;;;;;5027710;28;20223;-83
2022/04/08 01:33:21;;;;;;;9.43;9.13;;;8.30;99.90;;;;;;5035243;28;20243;-82
2022/04/08 01:35:49;;;;;;;9.50;9.20;;;8.20;99.90;;;;;;5030624;28;20263;-82
2022/04/08 01:38:17;;;;;;;9.43;9.13;;;8.20;99.90;;;;;;5027855;28;20248;-82
2022/04/08 01:40:45;;;;;;;9.67;9.37;;;8.20;99.90;;;;;;5021259;28;20232;-81
2022/04/08 01:43:14;;;;;;;9.57;9.27;;;8.20;99.90;;;;;;5023295;28;20236;-81
2022/04/08 01:45:42;;;;;;;9.30;9.00;;;8.20;99.90;;;;;;5023226;28;20255;-81
2022/04/08 01:48:10;;;;;;;9.50;9.20;;;8.20;99.90;;;;;;5021777;28;20295;-81
2022/04/08 01:50:38;;;;;;;9.73;9.43;;;8.10;99.90;;;;;;5021427;28;20224;-81
2022/04/08 01:53:06;;;;;;;9.67;9.37;;;8.10;99.90;;;;;;5026944;28;20232;-81
2022/04/08 01:55:34;;;;;;;9.60;9.30;;;8.00;99.90;;;;;;5028089;28;20224;-81
2022/04/08 01:58:03;;;;;;;9.50;9.20;;;8.00;99.90;;;;;;5027378;28;20224;-81
2022/04/08 02:00:32;;;;;;;10.00;9.70;;;8.00;99.90;;;;;;5026029;28;20272;-81
2022/04/08 02:03:02;;;;;;;9.70;9.40;;;7.90;99.90;;;;;;5022388;28;20255;-81
2022/04/08 02:05:30;;;;;;;9.80;9.50;;;7.90;99.90;;;;;;5025106;28;20263;-81
2022/04/08 02:07:58;;;;;;;9.63;9.33;;;7.90;99.90;;;;;;5023119;28;20256;-81
2022/04/08 02:10:27;;;;;;;9.80;9.50;;;7.90;99.90;;;;;;5022869;28;20264;-81
2022/04/08 02:12:55;;;;;;;9.60;9.30;;;7.80;99.90;;;;;;5022926;28;20319;-82
2022/04/08 02:15:33;;;;;;;9.73;9.43;;;7.80;99.90;;;;;;5022555;28;20336;-81
2022/04/08 02:18:03;;;;;;;9.67;9.37;;;7.80;99.90;;;;;;5023772;28;20232;-81
2022/04/08 02:20:32;;;;;;;9.60;9.30;;;7.80;99.90;;;;;;5021718;28;20239;-81
2022/04/08 02:23:02;;;;;;;9.73;9.43;;;7.80;99.90;;;;;;5022818;28;20236;-81
2022/04/08 02:25:31;;;;;;;9.80;9.50;;;7.70;99.90;;;;;;5021915;28;20228;-81
2022/04/08 02:27:59;;;;;;;9.77;9.47;;;7.70;99.90;;;;;;5020921;28;20302;-81
2022/04/08 02:30:27;;;;;;;9.87;9.57;;;7.70;99.90;;;;;;5022243;28;20228;-81
2022/04/08 02:32:56;;;;;;;9.70;9.40;;;7.70;99.90;;;;;;5021240;28;20290;-82
2022/04/08 02:35:25;;;;;;;9.50;9.20;;;7.60;99.90;;;;;;5021569;28;20236;-82
2022/04/08 02:37:53;;;;;;;9.50;9.20;;;7.60;99.90;;;;;;5021916;28;20271;-82
2022/04/08 02:40:21;;;;;;;9.57;9.27;;;7.60;99.90;;;;;;5023232;28;20238;-82
2022/04/08 02:42:49;;;;;;;10.00;9.70;;;7.50;99.90;;;;;;5022511;28;20228;-81
2022/04/08 02:45:17;;;;;;;10.10;9.80;;;7.50;99.90;;;;;;5021730;28;20228;-81
2022/04/08 02:47:47;;;;;;;9.63;9.33;;;7.50;99.90;;;;;;5022629;28;20240;-81
2022/04/08 02:50:16;;;;;;;9.57;9.27;;;7.50;99.90;;;;;;5021968;28;20230;-81
2022/04/08 02:52:47;;;;;;;9.60;9.30;;;7.50;99.90;;;;;;5021001;28;20291;-81
2022/04/08 02:55:15;;;;;;;9.43;9.13;;;7.50;99.90;;;;;;5023283;28;20252;-80
2022/04/08 02:57:46;;;;;;;9.60;9.30;;;7.40;99.90;;;;;;5021300;28;20244;-81
2022/04/08 03:00:17;;;;;;;9.40;9.10;;;7.40;99.90;;;;;;5019865;28;20236;-81
2022/04/08 03:02:45;;;;;;;9.40;9.10;;;7.30;99.90;;;;;;5020242;28;20240;-81
2022/04/08 03:05:13;;;;;;;9.33;9.03;;;7.30;99.90;;;;;;5020658;28;20236;-80
2022/04/08 03:07:42;;;;;;;9.27;8.97;;;7.30;99.90;;;;;;5020772;28;20236;-81
2022/04/08 03:10:13;;;;;;;9.40;9.10;;;7.30;99.90;;;;;;5024398;28;20232;-80
2022/04/08 03:12:42;;;;;;;9.40;9.10;;;7.30;99.90;;;;;;5027186;28;20240;-80
2022/04/08 03:15:15;;;;;;;8.97;8.77;;;7.30;99.90;;;;;;5022691;28;20232;-81
2022/04/08 03:17:42;;;;;;;9.00;8.80;;;7.30;99.90;;;;;;5026502;28;20228;-80
2022/04/08 03:20:12;;;;;;;9.07;8.83;;;7.30;99.90;;;;;;5030719;28;20251;-81
2022/04/08 03:22:40;;;;;;;8.90;8.70;;;7.20;99.90;;;;;;5035219;28;20283;-81
2022/04/08 03:25:11;;;;;;;9.27;8.97;;;7.20;99.90;;;;;;5027486;28;20259;-80
2022/04/08 03:27:38;;;;;;;9.10;8.90;;;7.20;99.90;;;;;;5023546;28;20287;-81
2022/04/08 03:30:14;;;;;;;8.90;8.70;;;7.20;99.90;;;;;;5023976;28;20212;-81
2022/04/08 03:32:41;;;;;;;9.10;8.90;;;7.10;99.90;;;;;;5024243;28;20223;-81
2022/04/08 03:35:10;;;;;;;8.90;8.70;;;7.10;99.90;;;;;;5028843;28;20255;-81
2022/04/08 03:37:38;;;;;;;9.07;8.87;;;7.10;99.90;;;;;;5030635;28;20303;-81
2022/04/08 03:40:07;;;;;;;9.37;9.07;;;7.10;99.90;;;;;;5032420;28;20228;-81
2022/04/08 03:42:37;;;;;;;9.50;9.20;;;7.10;99.90;;;;;;5035386;28;20232;-82
2022/04/08 03:45:06;;;;;;;9.67;9.37;;;7.10;99.90;;;;;;5027688;28;20228;-81
2022/04/08 03:47:34;;;;;;;9.40;9.10;;;7.10;99.90;;;;;;5025572;28;20258;-81
2022/04/08 03:50:02;;;;;;;9.40;9.10;;;7.00;99.90;;;;;;5026120;28;20220;-80
2022/04/08 03:52:32;;;;;;;9.30;9.00;;;7.00;99.90;;;;;;5023498;28;20236;-81
2022/04/08 03:55:01;;;;;;;9.43;9.13;;;7.00;99.90;;;;;;5023749;28;20240;-80
2022/04/08 03:57:29;;;;;;;9.63;9.33;;;7.00;99.90;;;;;;5023233;28;20224;-81
2022/04/08 03:59:59;;;;;;;9.77;9.47;;;6.90;99.90;;;;;;5023173;28;20220;-81
2022/04/08 04:02:26;;;;;;;9.70;9.40;;;7.00;99.90;;;;;;5023007;28;20228;-81
2022/04/08 04:04:59;;;;;;;10.00;9.70;;;7.00;99.90;;;;;;5023691;28;20234;-81
2022/04/08 04:07:27;;;;;;;9.93;9.63;;;6.90;99.90;;;;;;5022504;28;20246;-81
2022/04/08 04:09:55;;;;;;;9.83;9.53;;;7.00;99.90;;;;;;5026659;28;20260;-80
2022/04/08 04:12:23;;;;;;;9.50;9.20;;;7.00;99.90;;;;;;5039359;28;20219;-81
2022/04/08 04:14:50;;;;;;;9.23;8.93;;;6.90;99.90;;;;;;5030784;28;20252;-80
2022/04/08 04:17:20;;;;;;;9.60;9.30;;;7.00;99.90;;;;;;5025677;28;20275;-81
2022/04/08 04:19:50;;;;;;;9.60;9.30;;;6.90;99.90;;;;;;5023335;28;20267;-81
2022/04/08 04:22:18;;;;;;;10.47;10.17;;;6.90;99.90;;;;;;5023298;28;20235;-81
2022/04/08 04:24:46;;;;;;;10.40;10.10;;;7.00;99.90;;;;;;5023730;28;20236;-81
2022/04/08 04:27:13;;;;;;;10.40;10.10;;;6.90;99.90;;;;;;5022682;28;20228;-81
2022/04/08 04:29:41;;;;;;;10.43;10.13;;;6.90;99.90;;;;;;5022483;28;20234;-80
2022/04/08 04:32:10;;;;;;;10.77;10.47;;;6.90;99.90;;;;;;5025740;28;20228;-81
2022/04/08 04:34:39;;;;;;;10.90;10.60;;;6.90;99.90;;;;;;5022650;28;20291;-82
2022/04/08 04:37:09;;;;;;;11.20;10.90;;;7.00;99.90;;;;;;5022619;28;20434;-79
2022/04/08 04:39:37;;;;;;;11.30;11.00;;;6.90;99.90;;;;;;5021707;28;20260;-79
2022/04/08 04:42:07;;;;;;;11.03;10.73;;;6.90;99.90;;;;;;5022817;28;20860;-80
2022/04/08 04:44:34;;;;;;;10.87;10.57;;;7.00;99.90;;;;;;5021599;28;20311;-80
2022/04/08 04:47:02;;;;;;;10.43;10.13;;;6.90;99.90;;;;;;5021737;28;20290;-80
2022/04/08 04:49:30;;;;;;;10.63;10.33;;;6.90;99.90;;;;;;5022022;28;20236;-81
2022/04/08 04:51:59;;;;;;;10.60;10.30;;;6.90;99.90;;;;;;5021673;28;20228;-80
2022/04/08 04:54:27;;;;;;;10.50;10.20;;;6.90;99.90;;;;;;5021864;28;20236;-80
2022/04/08 04:56:55;;;;;;;10.70;10.40;;;6.90;99.90;;;;;;5021635;28;20221;-80
2022/04/08 04:59:23;;;;;;;10.50;10.20;;;6.80;99.90;;;;;;5021183;28;20264;-80
2022/04/08 05:01:50;;;;;;;10.47;10.17;;;6.80;99.90;;;;;;5021353;28;20235;-80
2022/04/08 05:04:18;;;;;;;10.40;10.10;;;6.80;99.90;;;;;;5022775;28;20232;-81
2022/04/08 05:06:46;;;;;;;10.10;9.80;;;6.70;99.90;;;;;;5028001;28;20216;-81
2022/04/08 05:09:15;;;;;;;10.03;9.73;;;6.70;99.90;;;;;;5054273;22;20224;-81
2022/04/08 05:11:44;;;;;;;10.13;9.83;;;6.70;99.90;;;;;;5012138;28;20236;-80
2022/04/08 05:14:13;;;;;;;10.27;9.97;;;6.70;99.90;;;;;;5019344;28;20232;-80
2022/04/08 05:16:43;;;;;;;10.20;9.90;;;6.70;99.90;;;;;;5013049;28;20233;-80
2022/04/08 05:19:12;;;;;;;10.60;10.30;;;6.70;99.90;;;;;;4988530;28;20267;-80
2022/04/08 05:21:41;;;;;;;10.10;9.80;;;6.70;99.90;;;;;;4983941;28;20336;-80
2022/04/08 05:24:11;;;;;;;10.00;9.70;;;6.70;99.90;;;;;;5006390;28;20275;-81
2022/04/08 05:29:30;;;;;;;10.30;10.00;;;6.70;99.90;;;;;;5002139;28;20311;-81
2022/04/08 05:31:58;;;;;;;10.10;9.80;;;6.70;99.90;;;;;;5003368;28;20233;-81
2022/04/08 05:34:28;;;;;;;10.40;10.10;;;6.70;99.90;;;;;;5003830;28;20248;-81
2022/04/08 05:36:57;;;;;;;10.30;10.00;;;6.80;99.90;;;;;;5003671;28;20264;-82
2022/04/08 05:39:26;;;;;;;10.20;9.90;;;6.80;99.90;;;;;;5007897;28;20236;-81
2022/04/08 05:44:43;;;;;;;10.43;10.13;;;6.90;99.90;;;;;;5004479;28;20614;-82
2022/04/08 05:47:12;;;;;;;10.00;9.70;;;7.00;99.90;;;;;;5003179;28;20313;-82
2022/04/08 05:49:42;;;;;;;10.27;9.97;;;7.00;99.90;;;;;;5002524;28;20240;-82
2022/04/08 05:52:12;;;;;;;10.00;9.70;;;7.10;99.90;;;;;;5002817;28;20256;-82
2022/04/08 05:54:40;;;;;;;9.80;9.50;;;7.20;99.90;;;;;;5002833;28;20239;-84
2022/04/08 06:02:45;;;;;;;10.07;9.77;;;7.30;99.90;;;;;;5000775;28;20220;-83
2022/04/08 06:05:15;;;;;;;10.27;9.97;;;7.30;99.90;;;;;;5010440;28;20217;-81
2022/04/08 06:07:53;;;;;;;10.20;9.90;;;7.30;99.90;;;;;;5017866;28;20260;-82
2022/04/08 06:10:24;;;;;;;9.80;9.50;;;7.40;99.90;;;;;;5006392;28;20248;-83
2022/04/08 06:13:02;;;;;;;10.00;9.70;;;7.40;99.90;;;;;;5005437;28;20233;-83
2022/04/08 06:15:31;;;;;;;10.10;9.80;;;7.50;99.90;;;;;;5003928;28;20323;-84
2022/04/08 06:17:59;;;;;;;9.90;9.60;;;7.50;99.90;;;;;;5002294;28;20240;-83
2022/04/08 06:20:28;;;;;;;9.90;9.60;;;7.50;99.90;;;;;;5002180;28;20235;-84
2022/04/08 06:22:57;;;;;;;10.10;9.80;;;7.60;99.90;;;;;;5001206;28;20261;-85
2022/04/08 06:25:28;;;;;;;9.90;9.60;;;7.60;99.90;;;;;;5001548;28;20236;-85
2022/04/08 06:28:06;;;;;;;10.23;9.93;;;7.70;99.90;;;;;;5001258;28;21150;-85
2022/04/08 06:30:36;;;;;;;10.10;9.80;;;7.70;99.90;;;;;;5000973;28;20288;-85
2022/04/08 06:33:04;;;;;;;10.30;10.00;;;7.70;99.90;;;;;;5000758;28;20300;-82
2022/04/08 06:35:33;;;;;;;10.00;9.70;;;7.70;99.90;;;;;;5001383;28;20331;-84
2022/04/08 06:38:02;;;;;;;9.40;9.10;;;7.90;99.90;;;;;;5001434;28;20716;-83
2022/04/08 06:40:32;;;;;;;9.70;9.40;;;8.10;99.90;;;;;;5001114;28;20233;-81
2022/04/08 06:43:13;;;;;;;9.80;9.50;;;8.10;99.90;;;;;;5000586;28;20229;-82
2022/04/08 06:45:41;;;;;;;9.80;9.50;;;8.20;99.90;;;;;;5001184;28;20251;-83
2022/04/08 06:48:09;;;;;;;9.93;9.63;;;8.30;99.90;;;;;;5000768;28;20236;-82
2022/04/08 06:50:39;;;;;;;9.90;9.60;;;8.30;99.90;;;;;;5000911;28;20221;-82
2022/04/08 06:53:08;;;;;;;10.17;9.87;;;8.30;99.90;;;;;;5002955;28;20242;-82
2022/04/08 06:55:37;;;;;;;9.97;9.67;;;8.30;99.90;;;;;;5015322;28;20244;-81
2022/04/08 06:58:19;;;;;;;10.10;9.80;;;8.30;99.90;;;;;;5021656;28;20232;-82
2022/04/08 07:00:48;;;;;;;10.10;9.80;;;8.40;99.90;;;;;;5021220;28;20225;-82
2022/04/08 07:03:15;;;;;;;10.47;10.17;;;8.40;99.90;;;;;;5021989;28;20236;-82
2022/04/08 07:05:45;;;;;;;10.17;9.87;;;8.40;99.90;;;;;;5023157;28;20237;-81
2022/04/08 07:08:14;;;;;;;10.07;9.77;;;8.30;99.90;;;;;;5023247;28;20228;-81
2022/04/08 07:10:44;;;;;;;9.53;9.23;;;8.20;99.90;;;;;;5024115;28;20219;-81
2022/04/08 07:13:15;;;;;;;9.83;9.53;;;8.20;99.90;;;;;;5023011;28;20217;-82
2022/04/08 07:15:43;;;;;;;9.70;9.40;;;8.20;99.90;;;;;;5023057;28;20240;-81
2022/04/08 07:18:12;;;;;;;9.20;8.90;;;8.20;99.90;;;;;;5022768;28;20236;-82
2022/04/08 07:20:41;;;;;;;9.70;9.40;;;8.30;99.90;;;;;;5023235;28;20209;-82
2022/04/08 07:23:10;;;;;;;8.90;8.70;;;8.40;99.90;;;;;;5022449;28;20221;-82
2022/04/08 07:25:40;;;;;;;9.30;9.00;;;8.40;99.90;;;;;;5023298;28;20216;-82
2022/04/08 07:28:10;;;;;;;9.30;9.00;;;8.40;99.90;;;;;;5022849;28;20225;-83
2022/04/08 07:30:43;;;;;;;9.00;8.80;;;8.40;99.90;;;;;;5022546;28;20277;-83
2022/04/08 07:33:11;;;;;;;9.47;9.17;;;8.50;99.90;;;;;;5022320;28;20243;-84
2022/04/08 07:35:39;;;;;;;9.50;9.20;;;8.60;99.90;;;;;;5022604;28;20236;-83
2022/04/08 07:38:09;;;;;;;9.70;9.40;;;8.60;99.90;;;;;;5021664;28;20260;-82
2022/04/08 07:40:38;;;;;;;9.67;9.37;;;8.60;99.90;;;;;;5019094;28;20220;-83
2022/04/08 07:43:07;;;;;;;9.87;9.57;;;8.60;99.90;;;;;;5021562;28;20212;-83
2022/04/08 07:45:37;;;;;;;9.57;9.27;;;8.70;99.90;;;;;;5021786;28;20232;-82
2022/04/08 07:48:17;;;;;;;9.70;9.40;;;8.60;99.90;;;;;;5021136;28;20229;-83
2022/04/08 07:50:45;;;;;;;9.90;9.60;;;8.70;99.90;;;;;;5020022;28;20244;-83
2022/04/08 07:53:15;;;;;;;9.60;9.30;;;8.70;99.90;;;;;;5004112;28;20240;-84
2022/04/08 07:55:43;;;;;;;10.10;9.80;;;8.80;99.90;;;;;;5004106;28;20232;-83
2022/04/08 07:58:13;;;;;;;9.87;9.57;;;8.80;99.90;;;;;;5003788;28;20247;-83
2022/04/08 08:00:45;;;;;;;10.00;9.70;;;8.90;99.90;;;;;;5003817;28;20225;-82
2022/04/08 08:04:25;;;;;;;10.20;9.90;;;9.00;99.90;;;;;;5004183;28;20232;-82
2022/04/08 08:06:55;;;;;;;10.10;9.80;;;9.00;99.90;;;;;;4983994;28;20312;-83
2022/04/08 08:09:22;;;;;;;10.07;9.77;;;9.10;99.90;;;;;;4984732;28;20233;-82
2022/04/08 08:11:51;;;;;;;10.33;10.03;;;9.10;99.90;;;;;;4984330;28;20660;-81
2022/04/08 08:14:20;;;;;;;10.20;9.90;;;9.10;99.90;;;;;;4985463;28;20241;-81
2022/04/08 08:16:50;;;;;;;9.47;9.17;;;9.10;99.90;;;;;;5003788;28;20268;-81
2022/04/08 08:19:19;;;;;;;9.40;9.10;;;9.10;99.90;;;;;;5003076;28;20752;-82
2022/04/08 08:21:48;;;;;;;9.50;9.20;;;9.10;99.90;;;;;;5006201;28;20240;-81
2022/04/08 08:27:05;;;;;;;9.70;9.40;;;9.10;99.90;;;;;;5007263;28;20233;-81
2022/04/08 08:29:35;;;;;;;9.43;9.13;;;9.20;99.90;;;;;;5005960;28;20237;-81
2022/04/08 08:32:04;;;;;;;9.20;8.90;;;9.30;99.90;;;;;;5005061;28;20233;-81
2022/04/08 08:34:33;;;;;;;9.40;9.10;;;9.30;99.90;;;;;;5004208;28;20244;-81
2022/04/08 08:37:02;;;;;;;10.10;9.80;;;9.30;99.90;;;;;;5004233;28;20233;-82
2022/04/08 08:39:41;;;;;;;9.83;9.53;;;9.40;99.90;;;;;;5003830;28;20233;-81
2022/04/08 08:42:20;;;;;;;9.57;9.27;;;9.50;99.90;;;;;;5003097;28;20758;-81
2022/04/08 08:44:48;;;;;;;9.80;9.50;;;9.40;99.90;;;;;;5003297;28;20240;-81
2022/04/08 08:47:18;;;;;;;9.53;9.23;;;9.30;99.90;;;;;;5003919;28;20335;-81
2022/04/08 08:49:50;;;;;;;9.50;9.20;;;9.10;99.90;;;;;;5004312;28;20695;-81
2022/04/08 08:52:20;;;;;;;9.70;9.40;;;9.00;99.90;;;;;;5010209;28;20244;-80
2022/04/08 08:54:49;;;;;;;9.57;9.27;;;9.00;99.90;;;;;;5014579;28;20221;-79
2022/04/08 08:57:19;;;;;;;9.37;9.07;;;9.10;99.90;;;;;;5013147;28;20232;-80
2022/04/08 08:59:47;;;;;;;9.17;8.93;;;9.10;99.90;;;;;;5004433;28;20240;-82
2022/04/08 09:02:23;;;;;;;9.60;9.30;;;9.10;99.90;;;;;;5005304;28;20225;-81
2022/04/08 09:04:54;;;;;;;9.50;9.20;;;9.00;99.90;;;;;;5005351;28;20232;-82
2022/04/08 09:07:40;;;;;;;9.40;9.10;;;9.10;99.90;;;;;;5004278;28;20248;-82
2022/04/08 09:10:36;;;;;;;9.60;9.30;;;9.10;99.90;;;;;;5003633;28;20231;-83
2022/04/08 09:21:09;;;;;;;9.83;9.53;;;9.30;99.90;;;;;;4996164;28;20233;-80
2022/04/08 09:23:40;;;;;;;9.40;9.10;;;9.20;99.90;;;;;;5001560;28;20247;-80
2022/04/08 09:26:14;;;;;;;9.50;9.20;;;9.10;99.90;;;;;;5003330;28;20229;-80
2022/04/08 09:28:48;;;;;;;9.37;9.07;;;9.10;99.90;;;;;;5003639;28;20236;-81
2022/04/08 09:31:20;;;;;;;9.40;9.10;;;9.20;99.90;;;;;;5003099;28;20263;-81
2022/04/08 09:33:56;;;;;;;9.50;9.20;;;9.20;99.90;;;;;;5002681;28;20228;-81
2022/04/08 09:36:35;;;;;;;9.87;9.57;;;9.30;99.90;;;;;;5002255;28;20268;-80
2022/04/08 09:39:12;;;;;;;9.90;9.60;;;9.20;99.90;;;;;;5003380;28;20236;-81
2022/04/08 09:41:53;;;;;;;10.00;9.70;;;9.00;99.90;;;;;;5004180;28;20339;-81
2022/04/08 09:44:28;;;;;;;9.70;9.40;;;8.80;99.90;;;;;;5002945;28;20320;-81
2022/04/08 09:46:58;;;;;;;10.10;9.80;;;8.60;99.90;;;;;;5002422;28;20347;-81
2022/04/08 09:49:27;;;;;;;9.80;9.50;;;8.40;99.90;;;;;;5004140;28;20266;-81
2022/04/08 09:51:56;;;;;;;9.90;9.60;;;8.30;99.90;;;;;;5003155;28;20233;-81
2022/04/08 09:54:29;;;;;;;9.87;9.57;;;8.20;99.90;;;;;;5003336;28;20296;-82
2022/04/08 09:57:04;;;;;;;9.90;9.60;;;8.10;99.90;;;;;;5002886;28;20727;-81
2022/04/08 09:59:35;;;;;;;10.10;9.80;;;8.00;99.90;;;;;;5002445;28;20240;-81
2022/04/08 10:02:04;;;;;;;10.57;10.27;;;8.00;99.90;;;;;;5001827;28;20280;-80
2022/04/08 10:04:34;;;;;;;10.37;10.07;;;8.10;99.90;;;;;;5001990;28;20237;-81
2022/04/08 10:07:05;;;;;;;10.70;10.40;;;8.10;99.90;;;;;;5002389;28;20249;-81
2022/04/08 10:09:51;;;;;;;10.83;10.53;;;8.00;99.90;;;;;;5001901;28;20248;-80
2022/04/08 10:12:29;;;;;;;11.30;11.00;;;7.90;99.90;;;;;;5002785;28;20240;-81
2022/04/08 10:15:06;;;;;;;11.00;10.70;;;7.70;99.90;;;;;;5005704;28;20232;-81
2022/04/08 10:17:34;;;;;;;11.30;11.00;;;7.60;99.90;;;;;;5004766;28;20235;-81
2022/04/08 10:20:23;;;;;;;11.00;10.70;;;7.60;99.90;;;;;;5004384;28;20232;-81
2022/04/08 10:22:54;;;;;;;11.40;11.10;;;7.60;99.90;;;;;;5003304;28;20271;-81
2022/04/08 10:25:26;;;;;;;11.30;11.00;;;7.50;99.90;;;;;;5003245;28;20235;-81
2022/04/08 10:28:01;;;;;;;11.00;10.70;;;7.50;99.90;;;;;;5001185;28;20243;-80
2022/04/08 10:30:29;;;;;;;10.47;10.17;;;7.50;99.90;;;;;;4997751;28;20237;-80
2022/04/08 10:33:01;;;;;;;10.37;10.07;;;7.50;99.90;;;;;;4983063;28;20238;-81
2022/04/08 10:35:29;;;;;;;10.63;10.33;;;7.50;99.90;;;;;;4992386;28;20229;-80
2022/04/08 10:37:59;;;;;;;10.57;10.27;;;7.60;99.90;;;;;;4997361;28;20309;-81
2022/04/08 10:40:35;;;;;;;10.80;10.50;;;7.70;99.90;;;;;;5002441;28;20295;-81
2022/04/08 10:43:14;;;;;;;10.57;10.27;;;7.80;99.90;;;;;;5017782;28;20228;-81
2022/04/08 10:45:55;;;;;;;10.80;10.50;;;7.90;99.90;;;;;;5008175;28;20228;-82
2022/04/08 10:48:32;;;;;;;10.70;10.40;;;8.10;99.90;;;;;;5003024;28;20229;-81
2022/04/08 10:51:08;;;;;;;10.97;10.67;;;8.10;99.90;;;;;;4995536;28;20239;-78
2022/04/08 10:53:40;;;;;;;10.90;10.60;;;8.10;99.90;;;;;;5001964;28;20264;-80
2022/04/08 10:59:03;;;;;;;10.60;10.30;;;7.90;99.90;;;;;;4999270;28;20716;-82
2022/04/08 11:01:49;;;;;;;11.17;10.87;;;7.80;99.90;;;;;;5001049;28;20295;-80
2022/04/08 11:04:20;;;;;;;10.87;10.57;;;7.90;99.90;;;;;;5001169;28;20224;-80
2022/04/08 11:06:49;;;;;;;10.47;10.17;;;7.90;99.90;;;;;;5002520;28;20237;-79
2022/04/08 11:09:16;;;;;;;11.00;10.70;;;7.90;99.90;;;;;;5036361;22;20231;-79
2022/04/08 11:11:52;;;;;;;11.00;10.70;;;7.80;99.90;;;;;;5029824;28;20228;-79
2022/04/08 11:14:22;;;;;;;11.20;10.90;;;7.80;99.90;;;;;;5040709;28;20247;-80
2022/04/08 11:16:50;;;;;;;11.40;11.10;;;7.80;99.90;;;;;;5040345;28;20239;-80
2022/04/08 11:19:20;;;;;;;11.17;10.87;;;7.80;99.90;;;;;;5038833;28;20232;-80
2022/04/08 11:21:51;;;;;;;11.50;11.20;;;7.80;99.90;;;;;;5034126;28;20363;-80
2022/04/08 11:24:19;;;;;;;11.70;11.30;;;7.80;99.90;;;;;;5030790;28;20241;-81
2022/04/08 11:26:48;;;;;;;11.73;11.33;;;7.80;99.90;;;;;;5027222;28;20259;-78
2022/04/08 11:29:18;;;;;;;11.57;11.20;;;7.70;99.90;;;;;;5034878;28;20236;-79
2022/04/08 11:31:49;;;;;;;11.40;11.10;;;7.60;99.90;;;;;;5035654;28;20238;-78
2022/04/08 11:34:18;;;;;;;10.90;10.60;;;7.50;99.90;;;;;;5035800;28;20236;-80
2022/04/08 11:36:46;;;;;;;11.33;11.03;;;7.50;99.90;;;;;;5037719;28;20297;-80
2022/04/08 11:39:22;;;;;;;11.47;11.17;;;7.50;99.90;;;;;;5027009;28;20237;-79
2022/04/08 11:41:54;;;;;;;10.97;10.67;;;7.50;99.90;;;;;;5026404;28;20235;-80
2022/04/08 11:44:22;;;;;;;11.03;10.73;;;7.50;99.90;;;;;;5028629;28;20284;-79
2022/04/08 11:46:52;;;;;;;11.00;10.70;;;7.50;99.90;;;;;;5022308;28;20236;-79
2022/04/08 11:49:24;;;;;;;11.20;10.90;;;7.40;99.90;;;;;;5021200;28;20267;-80
2022/04/08 11:52:03;;;;;;;11.30;11.00;;;7.30;99.90;;;;;;5019856;28;20251;-80
2022/04/08 11:54:35;;;;;;;11.83;11.43;;;7.30;99.90;;;;;;5021499;28;20239;-81
2022/04/08 11:57:04;;;;;;;11.40;11.10;;;7.30;99.90;;;;;;5021449;28;20262;-82
2022/04/08 11:59:33;;;;;;;11.40;11.10;;;7.30;99.90;;;;;;5021793;28;20294;-80
2022/04/08 12:02:04;;;;;;;11.30;11.00;;;7.30;99.90;;;;;;5020994;28;20232;-81
2022/04/08 12:04:32;;;;;;;11.53;11.20;;;7.30;99.90;;;;;;5020439;28;20244;-80
2022/04/08 12:07:00;;;;;;;11.57;11.17;;;7.30;99.90;;;;;;5020268;28;20232;-80
2022/04/08 12:09:29;;;;;;;11.70;11.30;;;7.30;99.90;;;;;;5020565;28;20383;-81
2022/04/08 12:11:59;;;;;;;11.80;11.40;;;7.40;99.90;;;;;;5020679;28;20236;-81
2022/04/08 12:14:27;;;;;;;11.20;10.90;;;7.40;99.90;;;;;;5020940;28;20236;-81
2022/04/08 12:17:05;;;;;;;11.13;10.83;;;7.40;99.90;;;;;;5023651;28;20271;-80
2022/04/08 12:19:41;;;;;;;11.30;11.00;;;7.40;99.90;;;;;;5022769;28;20259;-80
2022/04/08 12:22:14;;;;;;;11.53;11.13;;;7.30;99.90;;;;;;5020724;28;20236;-80
2022/04/08 12:24:42;;;;;;;11.70;11.30;;;7.30;99.90;;;;;;5020997;28;20263;-80
2022/04/08 12:27:16;;;;;;;11.73;11.33;;;7.10;99.90;;;;;;5022443;28;20291;-81
2022/04/08 12:29:45;;;;;;;11.53;11.13;;;7.10;99.90;;;;;;5020487;28;20260;-80
2022/04/08 12:32:18;;;;;;;11.90;11.50;;;7.00;99.90;;;;;;5021386;28;20262;-80
2022/04/08 12:34:46;;;;;;;11.83;11.43;;;6.70;99.90;;;;;;5020825;28;20232;-80
2022/04/08 12:37:13;;;;;;;11.90;11.50;;;6.60;99.90;;;;;;5006442;28;20229;-80
2022/04/08 12:39:41;;;;;;;12.00;11.60;;;6.50;99.90;;;;;;5015418;28;20236;-80
2022/04/08 12:42:09;;;;;;;12.10;11.70;;;6.50;99.90;;;;;;5020924;28;20236;-80
2022/04/08 12:44:37;;;;;;;11.80;11.40;;;6.50;99.90;;;;;;5021173;28;20274;-81
2022/04/08 12:47:05;;;;;;;11.70;11.30;;;6.60;99.90;;;;;;5019169;28;20260;-80
2022/04/08 12:49:34;;;;;;;11.80;11.40;;;6.70;99.90;;;;;;5020346;28;20232;-80
2022/04/08 12:52:02;;;;;;;11.23;10.93;;;6.70;99.90;;;;;;5019162;28;20268;-80
2022/04/08 12:54:29;;;;;;;11.00;10.70;;;6.80;99.90;;;;;;5020029;28;20240;-80
2022/04/08 12:56:57;;;;;;;11.03;10.73;;;6.80;99.90;;;;;;5019470;28;20290;-80
2022/04/08 12:59:26;;;;;;;11.10;10.80;;;6.70;99.90;;;;;;5019071;28;20259;-80
2022/04/08 13:01:54;;;;;;;11.20;10.90;;;6.70;99.90;;;;;;5019549;28;20236;-80
2022/04/08 13:04:22;;;;;;;10.70;10.40;;;6.70;99.90;;;;;;5019588;28;20224;-80
2022/04/08 13:06:56;;;;;;;11.10;10.80;;;6.70;99.90;;;;;;5018706;28;20364;-79
2022/04/08 13:09:24;;;;;;;11.03;10.73;;;6.80;99.90;;;;;;5019142;28;20240;-80
2022/04/08 13:11:52;;;;;;;10.90;10.60;;;6.80;99.90;;;;;;5019678;28;20235;-80
2022/04/08 13:14:20;;;;;;;11.13;10.83;;;6.90;99.90;;;;;;5015201;28;20232;-80
2022/04/08 13:16:48;;;;;;;11.53;11.13;;;6.90;99.90;;;;;;5020060;28;20232;-81
2022/04/08 13:19:15;;;;;;;11.17;10.87;;;6.90;99.90;;;;;;5019821;28;20272;-80
2022/04/08 13:21:43;;;;;;;11.10;10.80;;;6.90;99.90;;;;;;5020660;28;20236;-79
2022/04/08 13:24:12;;;;;;;11.10;10.80;;;6.80;99.90;;;;;;5022814;28;20247;-79
2022/04/08 13:26:40;;;;;;;10.90;10.60;;;6.80;99.90;;;;;;5021517;28;20232;-78
2022/04/08 13:29:10;;;;;;;10.93;10.63;;;6.80;99.90;;;;;;5018474;28;20259;-78